createdAt,value
2023-04-08T00:02:07.525Z,32.27
2023-04-08T00:04:34.977Z,30.37
2023-04-08T00:07:02.649Z,27.33
2023-04-08T00:09:30.001Z,26.20
2023-04-08T00:11:57.687Z,26.97
2023-04-08T00:14:24.912Z,26.67
2023-04-08T00:16:52.069Z,25.10
2023-04-08T00:19:20.036Z,28.27
2023-04-08T00:21:48.355Z,25.00
2023-04-08T00:24:15.669Z,24.87
2023-04-08T00:26:42.846Z,24.90
2023-04-08T00:29:09.982Z,22.97
2023-04-08T00:31:37.330Z,24.17
2023-04-08T00:34:04.519Z,23.87
2023-04-08T00:36:31.736Z,25.67
2023-04-08T00:38:58.918Z,22.37
2023-04-08T00:41:26.135Z,26.17
2023-04-08T00:43:53.514Z,22.73
2023-04-08T00:46:21.189Z,21.50
2023-04-08T00:48:48.601Z,23.33
2023-04-08T00:51:16.432Z,23.23
2023-04-08T00:53:43.626Z,21.67
2023-04-08T00:56:11.552Z,20.83
2023-04-08T00:58:39.482Z,23.67
2023-04-08T01:01:08.818Z,22.00
2023-04-08T01:03:43.626Z,21.70
2023-04-08T01:06:27.066Z,22.50
2023-04-08T01:08:54.787Z,26.00
2023-04-08T01:11:21.988Z,22.27
2023-04-08T01:13:50.191Z,16.47
2023-04-08T01:16:17.648Z,21.20
2023-04-08T01:18:46.293Z,19.63
2023-04-08T01:21:14.002Z,21.23
2023-04-08T01:23:47.412Z,22.30
2023-04-08T01:26:22.295Z,22.40
2023-04-08T01:28:52.139Z,19.33
2023-04-08T01:31:20.026Z,19.17
2023-04-08T01:33:48.719Z,20.43
2023-04-08T01:36:17.049Z,18.73
2023-04-08T01:38:44.879Z,17.77
2023-04-08T01:41:12.204Z,20.20
2023-04-08T01:43:42.905Z,21.93
2023-04-08T01:46:11.272Z,21.17
2023-04-08T01:48:38.961Z,18.03
2023-04-08T01:51:06.442Z,21.10
2023-04-08T01:53:34.370Z,20.53
2023-04-08T01:56:07.345Z,23.43
2023-04-08T01:58:39.461Z,25.07
2023-04-08T02:01:11.379Z,23.60
2023-04-08T02:03:39.133Z,22.23
2023-04-08T02:06:06.575Z,26.50
2023-04-08T02:08:35.395Z,27.13
2023-04-08T02:11:03.334Z,20.30
2023-04-08T02:13:31.781Z,22.77
2023-04-08T02:16:05.250Z,25.07
2023-04-08T02:18:32.876Z,19.10
2023-04-08T02:21:19.416Z,21.73
2023-04-08T02:23:51.383Z,22.40
2023-04-08T02:26:19.492Z,23.70
2023-04-08T02:28:48.603Z,22.77
2023-04-08T02:31:18.120Z,18.80
2023-04-08T02:33:45.705Z,21.07
2023-04-08T02:36:13.697Z,19.90
2023-04-08T02:38:41.004Z,21.03
2023-04-08T02:41:08.339Z,20.97
2023-04-08T02:43:35.700Z,25.07
2023-04-08T02:46:04.218Z,23.60
2023-04-08T02:48:32.287Z,21.00
2023-04-08T02:50:59.792Z,22.87
2023-04-08T02:53:27.057Z,22.80
2023-04-08T02:55:54.288Z,21.00
2023-04-08T02:58:21.424Z,20.63
2023-04-08T03:00:48.644Z,21.43
2023-04-08T03:03:16.080Z,21.50
2023-04-08T03:05:43.316Z,21.83
2023-04-08T03:08:10.638Z,22.73
2023-04-08T03:10:37.858Z,23.77
2023-04-08T03:13:05.102Z,24.80
2023-04-08T03:15:32.325Z,30.33
2023-04-08T03:17:59.594Z,21.37
2023-04-08T03:20:27.101Z,25.03
2023-04-08T03:22:54.468Z,25.53
2023-04-08T03:25:21.708Z,23.10
2023-04-08T03:27:48.867Z,25.23
2023-04-08T03:30:16.088Z,27.67
2023-04-08T03:32:43.543Z,28.60
2023-04-08T03:35:11.198Z,27.27
2023-04-08T03:37:38.400Z,24.67
2023-04-08T03:40:05.806Z,30.57
2023-04-08T03:42:33.714Z,23.77
2023-04-08T03:45:00.888Z,26.20
2023-04-08T03:47:28.073Z,24.07
2023-04-08T03:49:55.268Z,26.63
2023-04-08T03:52:22.449Z,30.93
2023-04-08T03:54:49.595Z,25.17
2023-04-08T03:57:16.819Z,29.03
2023-04-08T03:59:44.064Z,25.93
2023-04-08T04:02:11.313Z,28.90
2023-04-08T04:04:38.738Z,24.77
2023-04-08T04:07:06.162Z,26.30
2023-04-08T04:09:33.372Z,28.30
2023-04-08T04:12:00.784Z,30.93
2023-04-08T04:14:27.951Z,31.37
2023-04-08T04:16:55.181Z,32.30
2023-04-08T04:19:22.382Z,31.20
2023-04-08T04:21:49.570Z,25.27
2023-04-08T04:24:16.735Z,27.87
2023-04-08T04:26:43.943Z,28.47
2023-04-08T04:29:11.493Z,27.90
2023-04-08T04:31:38.921Z,32.37
2023-04-08T04:34:06.269Z,29.47
2023-04-08T04:36:33.551Z,28.43
2023-04-08T04:39:00.830Z,29.00
2023-04-08T04:41:28.102Z,27.90
2023-04-08T04:43:55.313Z,28.03
2023-04-08T04:46:22.517Z,27.10
2023-04-08T04:48:49.921Z,29.70
2023-04-08T04:51:17.294Z,29.00
2023-04-08T04:53:44.458Z,24.90
2023-04-08T04:56:11.618Z,31.57
2023-04-08T04:58:38.904Z,29.03
2023-04-08T05:01:06.257Z,27.60
2023-04-08T05:03:33.505Z,27.13
2023-04-08T05:06:01.113Z,29.43
2023-04-08T05:08:28.441Z,25.00
2023-04-08T05:10:56.584Z,26.97
2023-04-08T05:13:23.789Z,28.77
2023-04-08T05:15:51.133Z,26.83
2023-04-08T05:18:19.896Z,28.50
2023-04-08T05:20:47.228Z,31.20
2023-04-08T05:23:14.368Z,34.30
2023-04-08T05:25:41.670Z,34.90
2023-04-08T05:28:08.833Z,34.23
2023-04-08T05:30:36.136Z,32.70
2023-04-08T05:33:03.434Z,31.13
2023-04-08T05:35:30.922Z,34.43
2023-04-08T05:37:58.191Z,34.23
2023-04-08T05:40:25.421Z,33.73
2023-04-08T05:42:52.623Z,31.80
2023-04-08T05:45:19.772Z,34.13
2023-04-08T05:47:46.973Z,31.03
2023-04-08T05:50:14.261Z,29.50
2023-04-08T05:52:44.888Z,30.80
2023-04-08T05:55:12.328Z,31.50
2023-04-08T05:57:39.505Z,34.70
2023-04-08T06:00:08.204Z,35.07
2023-04-08T06:02:36.618Z,32.80
2023-04-08T06:05:04.559Z,30.97
2023-04-08T06:07:33.126Z,33.53
2023-04-08T06:10:00.514Z,33.37
2023-04-08T06:12:27.723Z,35.07
2023-04-08T06:14:57.410Z,36.83
2023-04-08T06:17:24.768Z,38.30
2023-04-08T06:19:52.090Z,39.60
2023-04-08T06:22:19.252Z,41.33
2023-04-08T06:24:47.723Z,35.80
2023-04-08T06:27:15.231Z,34.00
2023-04-08T06:29:43.098Z,36.27
2023-04-08T06:32:10.901Z,33.17
2023-04-08T06:34:38.342Z,35.30
2023-04-08T06:37:06.468Z,33.80
2023-04-08T06:39:33.855Z,39.07
2023-04-08T06:42:01.609Z,35.80
2023-04-08T06:44:29.025Z,36.53
2023-04-08T06:46:56.520Z,37.57
2023-04-08T06:49:23.751Z,34.20
2023-04-08T06:51:51.054Z,32.80
2023-04-08T06:54:18.264Z,33.90
2023-04-08T06:56:45.459Z,34.63
2023-04-08T06:59:12.771Z,35.53
2023-04-08T07:01:40.128Z,34.53
2023-04-08T07:04:07.429Z,33.47
2023-04-08T07:06:34.970Z,31.83
2023-04-08T07:09:02.099Z,31.87
2023-04-08T07:11:29.466Z,30.07
2023-04-08T07:13:57.151Z,32.60
2023-04-08T07:16:24.374Z,33.43
2023-04-08T07:18:52.155Z,36.50
2023-04-08T07:21:19.522Z,33.03
2023-04-08T07:23:47.104Z,32.50
2023-04-08T07:26:14.452Z,37.47
2023-04-08T07:28:41.873Z,33.87
2023-04-08T07:31:13.676Z,30.73
2023-04-08T07:33:41.062Z,34.43
2023-04-08T07:36:09.412Z,33.30
2023-04-08T07:38:36.906Z,38.17
2023-04-08T07:41:04.138Z,36.60
2023-04-08T07:43:34.685Z,29.10
2023-04-08T07:46:05.671Z,29.93
2023-04-08T07:48:33.279Z,32.63
2023-04-08T07:51:09.047Z,33.00
2023-04-08T07:53:37.988Z,32.67
2023-04-08T07:56:11.231Z,31.30
2023-04-08T07:58:40.414Z,24.93
2023-04-08T08:01:19.003Z,28.00
2023-04-08T08:03:48.091Z,29.47
2023-04-08T08:06:15.990Z,28.20
2023-04-08T08:08:43.262Z,30.73
2023-04-08T08:11:10.516Z,30.13
2023-04-08T08:13:37.755Z,32.20
2023-04-08T08:16:08.918Z,30.83
2023-04-08T08:18:36.998Z,30.20
2023-04-08T08:21:04.610Z,29.57
2023-04-08T08:23:31.763Z,26.67
2023-04-08T08:26:02.068Z,29.33
2023-04-08T08:28:29.346Z,29.37
2023-04-08T08:30:56.613Z,29.83
2023-04-08T08:33:23.840Z,28.33
2023-04-08T08:35:51.818Z,29.10
2023-04-08T08:38:19.385Z,29.30
2023-04-08T08:40:46.591Z,27.60
2023-04-08T08:43:13.794Z,29.03
2023-04-08T08:45:41.598Z,32.10
2023-04-08T08:48:09.204Z,30.13
2023-04-08T08:50:36.540Z,31.63
2023-04-08T08:53:04.351Z,27.40
2023-04-08T08:55:50.781Z,27.90
2023-04-08T08:58:21.140Z,28.57
2023-04-08T09:00:48.369Z,29.83
2023-04-08T09:03:18.797Z,28.70
2023-04-08T09:05:49.932Z,26.33
2023-04-08T09:08:29.131Z,25.90
2023-04-08T09:10:56.818Z,31.10
2023-04-08T09:13:24.863Z,25.97
2023-04-08T09:16:02.271Z,26.07
2023-04-08T09:18:29.594Z,25.73
2023-04-08T09:20:56.815Z,26.30
2023-04-08T09:23:23.999Z,26.03
2023-04-08T09:25:51.305Z,24.73
2023-04-08T09:28:21.498Z,25.50
2023-04-08T09:30:48.709Z,24.70
2023-04-08T09:33:15.999Z,25.17
2023-04-08T09:35:43.773Z,25.47
2023-04-08T09:38:10.950Z,29.37
2023-04-08T09:40:39.832Z,26.47
2023-04-08T09:43:08.384Z,25.47
2023-04-08T09:45:37.304Z,24.53
2023-04-08T09:48:18.927Z,27.47
2023-04-08T09:50:50.314Z,26.03
2023-04-08T09:53:23.285Z,26.50
2023-04-08T09:55:52.040Z,28.33
2023-04-08T09:58:42.898Z,26.43
2023-04-08T10:01:13.357Z,27.53
2023-04-08T10:03:49.548Z,28.67
2023-04-08T10:06:17.940Z,25.97
2023-04-08T10:08:45.787Z,27.90
2023-04-08T10:11:13.137Z,27.17
2023-04-08T10:13:40.446Z,30.33
2023-04-08T10:16:19.327Z,29.23
2023-04-08T10:18:46.842Z,29.03
2023-04-08T10:21:42.598Z,27.53
2023-04-08T10:24:10.680Z,29.70
2023-04-08T10:26:44.590Z,28.20
2023-04-08T10:29:21.398Z,28.63
2023-04-08T10:31:49.913Z,30.30
2023-04-08T10:34:20.284Z,30.47
2023-04-08T10:36:48.175Z,29.87
2023-04-08T10:39:18.270Z,29.10
2023-04-08T10:41:45.852Z,33.77
2023-04-08T10:44:31.126Z,34.57
2023-04-08T10:46:58.503Z,28.40
2023-04-08T10:49:33.408Z,29.80
2023-04-08T10:52:00.869Z,30.30
2023-04-08T10:54:28.554Z,28.70
2023-04-08T10:56:55.824Z,27.67
2023-04-08T10:59:29.904Z,27.70
2023-04-08T11:01:58.280Z,27.07
2023-04-08T11:04:26.369Z,28.73
2023-04-08T11:06:54.143Z,24.40
2023-04-08T11:09:21.486Z,27.67
2023-04-08T11:11:48.728Z,28.97
2023-04-08T11:14:17.386Z,28.90
2023-04-08T11:16:44.731Z,30.80
2023-04-08T11:19:14.416Z,28.67
2023-04-08T11:21:41.620Z,30.40
2023-04-08T11:24:12.290Z,26.53
2023-04-08T11:26:39.923Z,26.33
2023-04-08T11:29:07.212Z,29.03
2023-04-08T11:31:34.629Z,30.53
2023-04-08T11:34:01.860Z,28.87
2023-04-08T11:36:30.217Z,26.30
2023-04-08T11:38:57.904Z,27.43
2023-04-08T11:41:25.231Z,29.37
2023-04-08T11:43:53.224Z,29.00
2023-04-08T11:46:20.884Z,28.90
2023-04-08T11:49:00.895Z,24.13
2023-04-08T11:51:28.622Z,26.13
2023-04-08T11:53:56.807Z,27.33
2023-04-08T11:56:24.582Z,31.93
2023-04-08T11:58:52.745Z,30.83
2023-04-08T12:01:21.114Z,27.13
2023-04-08T12:03:58.982Z,24.73
2023-04-08T12:06:27.455Z,29.23
2023-04-08T12:08:55.594Z,25.00
2023-04-08T12:11:22.891Z,25.00
2023-04-08T12:13:50.970Z,24.33
2023-04-08T12:16:18.515Z,23.17
2023-04-08T12:18:46.702Z,33.43
2023-04-08T12:21:13.959Z,30.63
2023-04-08T12:23:41.527Z,28.13
2023-04-08T12:26:08.972Z,27.83
2023-04-08T12:28:36.392Z,28.20
2023-04-08T12:31:03.778Z,25.60
2023-04-08T12:33:31.392Z,28.43
2023-04-08T12:35:59.398Z,26.97
2023-04-08T12:38:27.154Z,25.40
2023-04-08T12:40:54.470Z,23.53
2023-04-08T12:43:22.154Z,25.53
2023-04-08T12:45:49.356Z,23.57
2023-04-08T12:48:16.831Z,27.80
2023-04-08T12:50:44.257Z,25.73
2023-04-08T12:53:11.689Z,28.60
2023-04-08T12:55:38.908Z,22.63
2023-04-08T12:58:06.653Z,24.43
2023-04-08T13:00:33.963Z,23.27
2023-04-08T13:03:01.236Z,26.90
2023-04-08T13:05:42.198Z,24.53
2023-04-08T13:08:11.862Z,25.73
2023-04-08T13:10:39.228Z,23.67
2023-04-08T13:13:06.730Z,23.33
2023-04-08T13:15:33.936Z,22.40
2023-04-08T13:18:01.430Z,24.87
2023-04-08T13:20:28.749Z,24.33
2023-04-08T13:22:55.998Z,22.40
2023-04-08T13:25:23.226Z,27.20
2023-04-08T13:27:50.461Z,23.63
2023-04-08T13:30:17.634Z,20.57
2023-04-08T13:32:44.862Z,21.80
2023-04-08T13:35:12.166Z,23.27
2023-04-08T13:37:39.389Z,21.93
2023-04-08T13:40:08.716Z,25.00
2023-04-08T13:42:35.948Z,23.97
2023-04-08T13:45:05.215Z,21.90
2023-04-08T13:47:32.535Z,18.97
2023-04-08T13:49:59.722Z,21.33
2023-04-08T13:52:27.455Z,23.33
2023-04-08T13:54:54.599Z,21.95
2023-04-08T13:57:21.849Z,19.67
2023-04-08T13:59:49.031Z,20.10
2023-04-08T14:02:16.367Z,22.27
2023-04-08T14:04:45.856Z,22.08
2023-04-08T14:07:13.937Z,21.42
2023-04-08T14:09:41.513Z,22.90
2023-04-08T14:12:08.675Z,19.95
2023-04-08T14:14:36.053Z,20.55
2023-04-08T14:17:03.267Z,20.80
2023-04-08T14:19:30.582Z,20.33
2023-04-08T14:21:57.745Z,21.10
2023-04-08T14:24:24.939Z,19.75
2023-04-08T14:26:52.098Z,21.17
2023-04-08T14:29:19.620Z,19.40
2023-04-08T14:31:46.770Z,20.33
2023-04-08T14:34:13.918Z,20.50
2023-04-08T14:36:41.145Z,20.83
2023-04-08T14:39:08.350Z,20.52
2023-04-08T14:41:35.608Z,19.92
2023-04-08T14:44:02.877Z,19.77
2023-04-08T14:46:30.155Z,18.65
2023-04-08T14:48:57.372Z,18.63
2023-04-08T14:51:24.573Z,17.70
2023-04-08T14:53:51.785Z,19.58
2023-04-08T14:56:19.007Z,18.65
2023-04-08T14:58:49.780Z,17.65
2023-04-08T15:01:18.304Z,20.33
2023-04-08T15:03:46.404Z,17.57
2023-04-08T15:06:17.145Z,18.07
2023-04-08T15:08:44.294Z,19.87
2023-04-08T15:11:11.585Z,17.70
2023-04-08T15:13:42.194Z,18.42
2023-04-08T15:16:09.954Z,19.17
2023-04-08T15:18:37.577Z,20.27
2023-04-08T15:21:04.971Z,19.67
2023-04-08T15:23:32.370Z,18.17
2023-04-08T15:25:59.575Z,21.77
2023-04-08T15:28:30.196Z,17.20
2023-04-08T15:30:57.425Z,18.63
2023-04-08T15:33:25.126Z,21.03
2023-04-08T15:35:52.572Z,21.98
2023-04-08T15:38:22.505Z,19.63
2023-04-08T15:40:49.726Z,17.20
2023-04-08T15:43:16.894Z,16.87
2023-04-08T15:45:44.669Z,18.63
2023-04-08T15:48:11.919Z,18.53
2023-04-08T15:50:39.735Z,19.00
2023-04-08T15:53:09.981Z,20.90
2023-04-08T15:55:41.016Z,18.73
2023-04-08T15:58:08.221Z,17.73
2023-04-08T16:00:35.470Z,20.83
2023-04-08T16:03:02.902Z,18.30
2023-04-08T16:05:31.216Z,16.85
2023-04-08T16:07:58.440Z,19.35
2023-04-08T16:10:26.111Z,22.00
2023-04-08T16:12:57.021Z,21.50
2023-04-08T16:15:26.531Z,18.73
2023-04-08T16:17:53.912Z,19.37
2023-04-08T16:20:22.539Z,19.10
2023-04-08T16:22:51.295Z,21.07
2023-04-08T16:25:19.049Z,21.37
2023-04-08T16:27:47.537Z,19.97
2023-04-08T16:30:16.005Z,21.37
2023-04-08T16:32:43.977Z,20.23
2023-04-08T16:35:13.113Z,20.07
2023-04-08T16:37:40.290Z,21.07
2023-04-08T16:40:10.319Z,19.17
2023-04-08T16:42:37.529Z,21.47
2023-04-08T16:45:04.887Z,22.47
2023-04-08T16:47:32.250Z,20.45
2023-04-08T16:49:59.930Z,18.58
2023-04-08T16:52:29.937Z,19.90
2023-04-08T16:54:57.694Z,21.63
2023-04-08T16:57:24.896Z,21.33
2023-04-08T16:59:53.218Z,23.73
2023-04-08T17:02:21.892Z,22.50
2023-04-08T17:04:59.195Z,21.33
2023-04-08T17:07:28.352Z,26.10
2023-04-08T17:09:55.847Z,25.10
2023-04-08T17:12:23.008Z,27.50
2023-04-08T17:14:50.473Z,34.40
2023-04-08T17:17:17.870Z,39.43
2023-04-08T17:19:45.073Z,37.97
2023-04-08T17:22:12.241Z,45.47
2023-04-08T17:24:39.430Z,42.77
2023-04-08T17:27:07.020Z,45.40
2023-04-08T17:29:34.194Z,46.30
2023-04-08T17:32:01.484Z,43.20
2023-04-08T17:34:29.303Z,44.90
2023-04-08T17:36:56.832Z,41.87
2023-04-08T17:39:24.010Z,40.90
2023-04-08T17:41:51.458Z,39.80
2023-04-08T17:44:18.627Z,34.17
2023-04-08T17:46:46.116Z,38.40
2023-04-08T17:49:14.222Z,35.40
2023-04-08T17:51:42.815Z,34.77
2023-04-08T17:54:09.988Z,37.50
2023-04-08T17:56:37.146Z,32.80
2023-04-08T17:59:04.358Z,40.93
2023-04-08T18:01:31.692Z,42.53
2023-04-08T18:03:59.218Z,41.50
2023-04-08T18:06:26.645Z,44.17
2023-04-08T18:08:53.833Z,40.27
2023-04-08T18:11:22.902Z,53.67
2023-04-08T18:13:50.683Z,50.70
2023-04-08T18:16:18.910Z,47.80
2023-04-08T18:18:46.205Z,212.33
2023-04-08T18:21:15.075Z,218.50
2023-04-08T18:23:42.439Z,190.73
2023-04-08T18:26:10.801Z,161.37
2023-04-08T18:28:37.972Z,156.03
2023-04-08T18:31:05.212Z,136.40
2023-04-08T18:33:32.510Z,119.37
2023-04-08T18:36:06.796Z,102.63
2023-04-08T18:38:36.175Z,91.47
2023-04-08T18:41:06.408Z,90.50
2023-04-08T18:43:34.107Z,78.10
2023-04-08T18:46:01.551Z,78.03
2023-04-08T18:48:28.827Z,73.83
2023-04-08T18:50:56.697Z,74.73
2023-04-08T18:53:24.042Z,78.47
2023-04-08T18:55:51.707Z,73.00
2023-04-08T18:58:19.009Z,66.77
2023-04-08T19:00:46.335Z,74.07
2023-04-08T19:03:13.719Z,59.80
2023-04-08T19:05:40.989Z,64.60
2023-04-08T19:08:08.194Z,60.83
2023-04-08T19:10:35.672Z,63.03
2023-04-08T19:13:03.176Z,60.23
2023-04-08T19:15:30.968Z,62.13
2023-04-08T19:17:59.162Z,62.00
2023-04-08T19:20:27.389Z,67.17
2023-04-08T19:22:55.648Z,65.93
2023-04-08T19:25:22.897Z,58.27
2023-04-08T19:27:50.429Z,58.57
2023-04-08T19:30:17.725Z,55.47
2023-04-08T19:32:45.936Z,55.37
2023-04-08T19:35:13.453Z,63.73
2023-04-08T19:37:40.931Z,60.83
2023-04-08T19:40:09.074Z,63.33
2023-04-08T19:42:36.530Z,64.93
2023-04-08T19:45:05.245Z,66.57
2023-04-08T19:47:33.097Z,62.50
2023-04-08T19:50:00.603Z,77.53
2023-04-08T19:52:27.830Z,76.80
2023-04-08T19:54:55.057Z,64.53
2023-04-08T19:57:22.476Z,69.87
2023-04-08T19:59:49.703Z,61.07
2023-04-08T20:02:17.093Z,64.80
2023-04-08T20:04:45.688Z,68.63
2023-04-08T20:07:13.485Z,55.80
2023-04-08T20:09:40.787Z,63.00
2023-04-08T20:12:09.102Z,59.20
2023-04-08T20:14:38.993Z,61.00
2023-04-08T20:17:06.632Z,62.00
2023-04-08T20:19:34.102Z,58.13
2023-04-08T20:22:01.718Z,65.93
2023-04-08T20:24:28.977Z,68.67
2023-04-08T20:26:56.258Z,63.90
2023-04-08T20:29:23.662Z,61.00
2023-04-08T20:31:51.833Z,62.10
2023-04-08T20:34:19.178Z,63.40
2023-04-08T20:36:46.575Z,67.10
2023-04-08T20:39:13.728Z,62.07
2023-04-08T20:41:41.014Z,62.83
2023-04-08T20:44:10.597Z,63.57
2023-04-08T20:46:38.571Z,65.80
2023-04-08T20:49:06.361Z,57.97
2023-04-08T20:51:33.900Z,62.43
2023-04-08T20:54:01.138Z,69.00
2023-04-08T20:56:28.451Z,61.63
2023-04-08T20:58:58.214Z,67.10
2023-04-08T21:01:27.144Z,66.73
2023-04-08T21:03:54.777Z,60.93
2023-04-08T21:06:22.377Z,66.77
2023-04-08T21:08:50.167Z,62.60
2023-04-08T21:11:17.626Z,53.70
2023-04-08T21:13:46.675Z,61.63
2023-04-08T21:16:16.427Z,57.90
2023-04-08T21:18:43.918Z,64.00
2023-04-08T21:21:11.360Z,56.00
2023-04-08T21:23:38.533Z,56.50
2023-04-08T21:26:11.887Z,58.27
2023-04-08T21:28:40.096Z,55.33
2023-04-08T21:31:13.363Z,64.23
2023-04-08T21:33:41.109Z,57.33
2023-04-08T21:36:08.334Z,58.93
2023-04-08T21:38:35.781Z,57.27
2023-04-08T21:41:02.927Z,58.80
2023-04-08T21:43:30.302Z,62.53
2023-04-08T21:45:57.641Z,53.67
2023-04-08T21:48:24.960Z,55.70
2023-04-08T21:50:53.174Z,59.67
2023-04-08T21:53:22.156Z,63.63
2023-04-08T21:55:49.504Z,61.37
2023-04-08T21:58:17.242Z,64.73
2023-04-08T22:00:44.847Z,58.37
2023-04-08T22:03:12.314Z,60.10
2023-04-08T22:05:39.745Z,57.00
2023-04-08T22:08:06.975Z,60.47
2023-04-08T22:10:34.172Z,57.53
2023-04-08T22:13:01.369Z,67.23
2023-04-08T22:15:28.610Z,62.97
2023-04-08T22:17:56.082Z,61.43
2023-04-08T22:20:23.416Z,65.40
2023-04-08T22:22:50.765Z,59.07
2023-04-08T22:25:18.846Z,59.07
2023-04-08T22:27:46.124Z,58.27
2023-04-08T22:30:13.588Z,57.13
2023-04-08T22:32:41.206Z,58.53
2023-04-08T22:35:08.734Z,50.37
2023-04-08T22:37:35.972Z,55.07
2023-04-08T22:40:03.793Z,57.77
2023-04-08T22:42:31.297Z,58.37
2023-04-08T22:44:58.745Z,50.07
2023-04-08T22:47:26.146Z,49.67
2023-04-08T22:49:53.399Z,51.93
2023-04-08T22:52:20.799Z,48.90
2023-04-08T22:54:48.067Z,49.53
2023-04-08T22:57:15.485Z,49.50
2023-04-08T22:59:42.667Z,47.47
2023-04-08T23:02:10.149Z,46.27
2023-04-08T23:04:37.404Z,48.97
2023-04-08T23:07:04.619Z,49.63
2023-04-08T23:09:31.833Z,48.50
2023-04-08T23:11:59.016Z,44.47
2023-04-08T23:14:26.270Z,44.33
2023-04-08T23:16:53.496Z,46.93
2023-04-08T23:19:20.877Z,40.63
2023-04-08T23:21:48.094Z,46.30
2023-04-08T23:24:15.433Z,43.97
2023-04-08T23:26:42.632Z,47.03
2023-04-08T23:29:10.643Z,47.57
2023-04-08T23:31:38.083Z,42.90
2023-04-08T23:34:05.544Z,43.83
2023-04-08T23:36:32.677Z,42.90
2023-04-08T23:38:59.860Z,42.73
2023-04-08T23:41:27.176Z,47.23
2023-04-08T23:43:54.412Z,46.20
2023-04-08T23:46:21.732Z,45.33
2023-04-08T23:48:49.034Z,45.63
2023-04-08T23:51:16.368Z,44.80
2023-04-08T23:53:43.630Z,47.67
2023-04-08T23:56:10.997Z,48.63
2023-04-08T23:58:38.219Z,45.10
